.
WxDataArchive / Data Records for 2016-01-14
2016-01-13 January 2016 2016-01-15

Data Records for Thursday, 14 January 2016

Time	Temp	Chill	HIndex	Humid	Dewpt	 Wind 	HiWind	WindDir	Rain 	Barom
-----	----	-----	------	-----	-----	------	------	-------	-----	-----
00:00	22.7	22.7	22.7	73	15.4	1	5	248	0.00	29.860 
00:05	22.9	22.9	22.9	73	15.6	1	5	248	0.00	29.860 
00:10	22.9	22.9	22.9	73	15.6	1	3	248	0.00	29.860 
00:15	23.0	23.0	23.0	73	15.7	1	3	248	0.00	29.848 
00:20	23.0	23.0	23.0	74	16.0	1	5	248	0.00	29.848 
00:25	23.2	23.2	23.2	73	15.9	1	4	248	0.00	29.848 
00:30	23.2	23.2	23.2	73	15.9	1	3	248	0.00	29.849 
00:35	23.2	23.2	23.2	73	15.9	1	4	248	0.00	29.849 
00:40	23.0	23.0	23.0	73	15.7	1	4	248	0.00	29.849 
00:45	23.0	23.0	23.0	74	16.0	0	3	248	0.00	29.851 
00:50	22.9	22.9	22.9	74	15.9	0	4	248	0.00	29.851 
00:55	22.9	22.9	22.9	74	15.9	0	4	248	0.00	29.851 
01:00	22.7	22.7	22.7	74	15.7	0	3	248	0.00	29.847 
01:05	22.7	22.7	22.7	75	16.0	1	3	248	0.00	29.847 
01:10	22.5	22.5	22.5	75	15.8	0	3	248	0.00	29.847 
01:15	22.5	22.5	22.5	75	15.8	0	4	248	0.00	29.849 
01:20	22.5	22.5	22.5	75	15.8	1	3	248	0.00	29.849 
01:25	22.5	22.5	22.5	75	15.8	0	3	248	0.00	29.849 
01:30	22.4	22.4	22.4	76	16.0	0	3	248	0.00	29.849 
01:35	22.4	22.4	22.4	76	16.0	0	2	248	0.00	29.849 
01:40	22.2	22.2	22.2	76	15.8	0	3	248	0.00	29.849 
01:45	22.4	22.4	22.4	77	16.3	0	2	248	0.00	29.847 
01:50	22.2	22.2	22.2	77	16.1	0	1	248	0.00	29.847 
01:55	22.2	22.2	22.2	77	16.1	0	1	248	0.00	29.847 
02:00	22.1	22.1	22.1	77	16.0	0	2	248	0.00	29.845 
02:05	22.1	22.1	22.1	77	16.0	0	2	248	0.00	29.845 
02:10	22.1	22.1	22.1	77	16.0	0	2	248	0.00	29.845 
02:15	22.1	22.1	22.1	78	16.3	0	2	248	0.00	29.841 
02:20	22.1	22.1	22.1	78	16.3	0	1	248	0.00	29.841 
02:25	21.9	21.9	21.9	78	16.1	0	0	---	0.00	29.841 
02:30	21.9	21.9	21.9	78	16.1	0	2	248	0.00	29.841 
02:35	21.9	21.9	21.9	78	16.1	0	1	248	0.00	29.841 
02:40	21.9	21.9	21.9	78	16.1	0	1	248	0.00	29.841 
02:45	21.9	21.9	21.9	79	16.4	0	1	248	0.00	29.847 
02:50	21.9	21.9	21.9	79	16.4	0	1	248	0.00	29.847 
02:55	21.9	21.9	21.9	79	16.4	0	1	248	0.00	29.847 
03:00	22.1	22.1	22.1	79	16.6	0	1	248	0.00	29.847 
03:05	22.1	22.1	22.1	79	16.6	0	1	248	0.00	29.847 
03:10	22.1	22.1	22.1	80	16.9	0	1	248	0.00	29.847 
03:15	22.2	22.2	22.2	80	17.0	0	1	248	0.00	29.847 
03:20	22.4	22.4	22.4	80	17.2	0	1	248	0.00	29.847 
03:25	22.4	22.4	22.4	80	17.2	0	1	248	0.00	29.847 
03:30	22.5	22.5	22.5	80	17.3	0	1	248	0.00	29.843 
03:35	22.7	22.7	22.7	80	17.5	0	1	248	0.00	29.843 
03:40	22.7	22.7	22.7	80	17.5	0	1	248	0.00	29.843 
03:45	22.9	22.9	22.9	80	17.7	0	2	248	0.00	29.844 
03:50	22.9	22.9	22.9	80	17.7	0	2	248	0.00	29.844 
03:55	22.9	22.9	22.9	80	17.7	0	2	248	0.00	29.844 
04:00	23.0	23.0	23.0	80	17.8	0	2	248	0.00	29.843 
04:05	23.0	23.0	23.0	80	17.8	0	2	248	0.00	29.843 
04:10	23.0	23.0	23.0	80	17.8	0	2	248	0.00	29.843 
04:15	23.2	23.2	23.2	80	18.0	0	1	248	0.00	29.842 
04:20	23.3	23.3	23.3	80	18.1	0	2	248	0.00	29.842 
04:25	23.5	23.5	23.5	80	18.3	0	2	248	0.00	29.842 
04:30	23.8	23.8	23.8	80	18.5	0	1	248	0.00	29.841 
04:35	23.8	23.8	23.8	80	18.5	0	1	248	0.00	29.841 
04:40	23.9	23.9	23.9	80	18.6	0	1	248	0.00	29.841 
04:45	23.9	23.9	23.9	80	18.6	0	1	248	0.00	29.839 
04:50	24.1	24.1	24.1	80	18.8	0	2	248	0.00	29.839 
04:55	24.1	24.1	24.1	80	18.8	0	1	248	0.00	29.839 
05:00	24.2	24.2	24.2	80	18.9	0	0	---	0.00	29.836 
05:05	24.2	24.2	24.2	80	18.9	0	1	248	0.00	29.836 
05:10	24.2	24.2	24.2	80	18.9	0	1	248	0.00	29.836 
05:15	24.2	24.2	24.2	80	18.9	0	1	248	0.00	29.834 
05:20	24.2	24.2	24.2	80	18.9	0	1	248	0.00	29.834 
05:25	24.2	24.2	24.2	80	18.9	0	1	248	0.00	29.834 
05:30	24.2	24.2	24.2	80	18.9	0	2	248	0.00	29.836 
05:35	24.2	24.2	24.2	80	18.9	0	1	248	0.00	29.836 
05:40	24.2	24.2	24.2	79	18.6	0	1	248	0.00	29.836 
05:45	24.1	24.1	24.1	79	18.5	0	3	248	0.00	29.839 
05:50	24.1	24.1	24.1	79	18.5	0	2	248	0.00	29.839 
05:55	24.1	24.1	24.1	80	18.8	0	1	248	0.00	29.839 
06:00	23.9	23.9	23.9	80	18.6	0	1	248	0.00	29.834 
06:05	23.9	23.9	23.9	80	18.6	0	1	248	0.00	29.834 
06:10	23.9	23.9	23.9	80	18.6	0	0	---	0.00	29.834 
06:15	24.1	24.1	24.1	81	19.1	0	1	248	0.00	29.834 
06:20	24.2	24.2	24.2	81	19.2	0	1	248	0.00	29.834 
06:25	24.4	24.4	24.4	81	19.4	0	1	248	0.00	29.834 
06:30	24.5	24.5	24.5	81	19.5	0	1	248	0.00	29.831 
06:35	24.8	24.8	24.8	81	19.8	0	1	248	0.00	29.831 
06:40	24.8	24.8	24.8	81	19.8	0	2	248	0.00	29.831 
06:45	25.1	25.1	25.1	80	19.8	0	1	248	0.00	29.826 
06:50	25.3	25.3	25.3	80	20.0	0	2	248	0.00	29.826 
06:55	25.3	25.3	25.3	80	20.0	0	1	248	0.00	29.826 
07:00	25.4	25.4	25.4	80	20.1	0	1	248	0.00	29.824 
07:05	25.6	25.6	25.6	80	20.3	0	3	248	0.00	29.824 
07:10	25.6	25.6	25.6	80	20.3	0	2	248	0.00	29.824 
07:15	25.7	25.7	25.7	80	20.4	0	2	248	0.00	29.825 
07:20	25.8	25.8	25.8	80	20.5	0	1	248	0.00	29.825 
07:25	25.8	25.8	25.8	80	20.5	0	2	248	0.00	29.825 
07:30	26.0	26.0	26.0	80	20.7	0	1	248	0.00	29.819 
07:35	26.1	26.1	26.1	80	20.8	0	1	248	0.00	29.819 
07:40	26.1	26.1	26.1	80	20.8	0	1	248	0.00	29.819 
07:45	26.3	26.3	26.3	80	21.0	0	1	248	0.00	29.824 
07:50	26.4	26.4	26.4	80	21.1	0	2	248	0.00	29.824 
07:55	26.6	26.6	26.6	80	21.3	0	1	248	0.00	29.824 
08:00	26.7	26.7	26.7	80	21.4	0	1	248	0.00	29.820 
08:05	26.9	26.9	26.9	80	21.6	0	3	248	0.00	29.820 
08:10	27.2	27.2	27.2	80	21.9	0	3	248	0.00	29.820 
08:15	27.3	27.3	27.3	79	21.7	0	1	248	0.00	29.816 
08:20	27.5	27.5	27.5	80	22.2	0	1	248	0.00	29.816 
08:25	27.6	27.6	27.6	79	22.0	0	2	248	0.00	29.816 
08:30	27.8	27.8	27.8	79	22.2	0	1	248	0.00	29.815 
08:35	27.9	27.9	27.9	79	22.2	0	1	248	0.00	29.815 
08:40	28.1	28.1	28.1	79	22.4	0	2	248	0.00	29.815 
08:45	28.2	28.2	28.2	79	22.5	0	1	248	0.00	29.809 
08:50	28.4	28.4	28.4	79	22.7	0	2	248	0.00	29.809 
08:55	28.5	28.5	28.5	79	22.8	0	1	248	0.00	29.809 
09:00	28.7	28.7	28.7	79	23.0	0	1	248	0.00	29.812 
09:05	28.8	28.8	28.8	79	23.1	0	1	248	0.00	29.812 
09:10	29.0	29.0	29.0	79	23.3	0	3	248	0.00	29.812 
09:15	29.1	29.1	29.1	79	23.4	0	1	248	0.00	29.811 
09:20	29.3	29.3	29.3	78	23.3	0	1	248	0.00	29.811 
09:25	29.4	29.4	29.4	78	23.4	0	1	248	0.00	29.811 
09:30	29.7	29.7	29.7	79	24.0	0	1	248	0.00	29.815 
09:35	29.8	29.8	29.8	79	24.1	0	1	248	0.00	29.815 
09:40	30.1	30.1	30.1	78	24.1	0	2	248	0.00	29.815 
09:45	30.3	30.3	30.3	78	24.3	0	3	248	0.00	29.814 
09:50	30.6	30.6	30.6	78	24.6	0	3	270	0.00	29.814 
09:55	30.7	30.7	30.7	78	24.7	0	2	270	0.00	29.814 
10:00	31.0	31.0	31.0	78	25.0	0	3	270	0.00	29.822 
10:05	31.2	31.2	31.2	78	25.2	0	3	270	0.00	29.822 
10:10	31.3	31.3	31.3	78	25.3	0	3	248	0.00	29.822 
10:15	31.6	31.6	31.6	78	25.5	0	3	225	0.00	29.817 
10:20	31.9	31.9	31.9	77	25.5	1	5	90	0.00	29.817 
10:25	32.1	32.1	32.1	78	26.0	0	3	225	0.00	29.817 
10:30	32.4	32.4	32.4	77	26.0	0	2	225	0.00	29.818 
10:35	32.7	32.7	32.7	77	26.3	0	2	225	0.00	29.818 
10:40	33.1	33.1	33.1	77	26.7	0	2	225	0.00	29.818 
10:45	33.4	33.4	33.4	77	27.0	0	2	225	0.00	29.813 
10:50	33.7	33.7	33.7	77	27.3	0	2	90	0.00	29.813 
10:55	34.1	34.1	34.1	76	27.3	0	3	90	0.00	29.813 
11:00	34.4	34.4	34.4	76	27.6	0	2	90	0.00	29.806 
11:05	34.7	34.7	34.7	75	27.6	0	1	90	0.00	29.806 
11:10	35.0	35.0	35.0	75	27.9	0	2	90	0.00	29.806 
11:15	35.2	35.2	35.2	74	27.8	0	2	90	0.00	29.802 
11:20	35.5	35.5	35.5	73	27.7	1	3	90	0.00	29.802 
11:25	35.6	35.6	35.6	73	27.8	0	2	135	0.00	29.802 
11:30	35.8	35.8	35.8	73	28.0	0	2	135	0.00	29.800 
11:35	35.9	35.9	35.9	73	28.1	0	3	248	0.00	29.800 
11:40	36.0	36.0	36.0	73	28.2	0	2	248	0.00	29.800 
11:45	36.2	36.2	36.2	73	28.4	0	2	248	0.00	29.792 
11:50	36.5	36.5	36.5	72	28.3	1	5	248	0.00	29.792 
11:55	36.6	36.6	36.6	72	28.4	0	3	68	0.00	29.792 
12:00	36.8	36.8	36.8	73	29.0	0	2	68	0.01	29.774 
12:05	37.0	37.0	37.0	72	28.8	1	4	68	0.00	29.774 
12:10	37.0	37.0	37.0	72	28.8	0	1	68	0.01	29.774 
12:15	37.0	37.0	37.0	72	28.8	0	2	68	0.00	29.763 
12:20	37.0	37.0	37.0	72	28.8	0	2	0	0.00	29.763 
12:25	37.0	37.0	37.0	73	29.2	0	2	315	0.00	29.763 
12:30	37.2	37.2	37.2	73	29.4	0	2	292	0.00	29.764 
12:35	37.3	37.3	37.3	73	29.5	1	3	90	0.00	29.764 
12:40	37.5	37.5	37.5	73	29.6	1	3	225	0.01	29.764 
12:45	37.5	37.5	37.5	73	29.6	1	4	225	0.00	29.758 
12:50	37.3	37.3	37.3	73	29.5	1	5	248	0.00	29.758 
12:55	37.3	37.3	37.3	73	29.5	1	3	248	0.00	29.758 
13:00	37.6	37.6	37.6	74	30.1	0	3	270	0.00	29.748 
13:05	37.9	37.9	37.9	74	30.4	0	2	270	0.01	29.748 
13:10	38.2	38.2	38.2	73	30.3	0	2	270	0.00	29.748 
13:15	38.6	38.6	38.6	73	30.7	0	3	270	0.00	29.742 
13:20	38.9	38.9	38.9	73	31.0	1	5	22	0.00	29.742 
13:25	39.2	39.2	39.2	72	30.9	1	4	68	0.00	29.742 
13:30	39.3	39.3	39.3	72	31.0	0	2	270	0.01	29.742 
13:35	39.3	39.3	39.3	72	31.0	0	3	270	0.00	29.742 
13:40	39.5	39.5	39.5	72	31.2	0	2	270	0.00	29.742 
13:45	39.8	39.8	39.8	72	31.5	1	3	270	0.00	29.738 
13:50	40.2	40.2	40.2	71	31.6	1	5	270	0.01	29.738 
13:55	40.6	40.6	40.6	70	31.6	0	2	248	0.00	29.738 
14:00	41.1	41.1	41.1	70	32.1	0	2	248	0.00	29.726 
14:05	41.2	41.2	41.2	69	31.8	1	5	248	0.00	29.726 
14:10	41.3	41.3	41.3	68	31.5	1	4	248	0.01	29.726 
14:15	41.3	41.3	41.3	68	31.5	1	3	248	0.00	29.725 
14:20	41.2	41.2	41.2	69	31.8	1	3	248	0.01	29.725 
14:25	41.2	41.2	41.2	69	31.8	0	3	248	0.00	29.725 
14:30	41.2	41.2	41.2	70	32.2	1	3	248	0.00	29.717 
14:35	41.2	41.2	41.2	70	32.2	0	3	202	0.00	29.717 
14:40	41.2	41.2	41.2	70	32.2	1	5	225	0.01	29.717 
14:45	41.2	41.2	41.2	71	32.5	0	3	292	0.00	29.714 
14:50	41.3	41.3	41.3	71	32.6	1	4	292	0.00	29.714 
14:55	41.6	41.6	41.6	71	32.9	0	3	248	0.01	29.714 
15:00	41.9	41.9	41.9	70	32.8	0	3	248	0.00	29.713 
15:05	42.1	42.1	42.1	70	33.0	1	5	270	0.00	29.713 
15:10	42.2	42.2	42.2	70	33.1	1	5	90	0.01	29.713 
15:15	42.2	42.2	42.2	70	33.1	1	4	270	0.00	29.711 
15:20	42.3	42.3	42.3	70	33.2	0	3	248	0.00	29.711 
15:25	42.3	42.3	42.3	69	32.9	1	5	270	0.00	29.711 
15:30	42.5	42.5	42.5	70	33.4	1	3	248	0.01	29.707 
15:35	42.6	42.6	42.6	70	33.5	0	2	248	0.00	29.707 
15:40	42.9	42.9	42.9	70	33.8	0	4	248	0.00	29.707 
15:45	42.9	42.9	42.9	70	33.8	1	3	248	0.00	29.714 
15:50	42.9	42.9	42.9	70	33.8	1	2	248	0.00	29.714 
15:55	42.8	42.8	42.8	70	33.7	1	4	270	0.00	29.714 
16:00	42.6	42.6	42.6	71	33.9	1	3	270	0.00	29.705 
16:05	42.3	42.3	42.3	71	33.6	1	5	248	0.01	29.705 
16:10	42.3	42.3	42.3	71	33.6	0	3	248	0.00	29.705 
16:15	42.2	42.2	42.2	72	33.8	1	4	202	0.00	29.708 
16:20	42.1	42.1	42.1	72	33.7	0	2	270	0.00	29.708 
16:25	42.1	42.1	42.1	72	33.7	1	3	270	0.00	29.708 
16:30	41.9	41.9	41.9	72	33.5	0	2	270	0.00	29.709 
16:35	41.8	41.8	41.8	73	33.8	0	3	270	0.00	29.709 
16:40	41.6	41.6	41.6	73	33.6	0	3	270	0.00	29.709 
16:45	41.5	41.5	41.5	73	33.5	0	2	270	0.00	29.711 
16:50	41.3	41.3	41.3	74	33.6	0	2	270	0.00	29.711 
16:55	41.2	41.2	41.2	74	33.6	0	2	270	0.00	29.711 
17:00	41.2	41.2	41.2	75	33.9	1	4	315	0.00	29.710 
17:05	41.1	41.1	41.1	75	33.8	0	1	315	0.00	29.710 
17:10	40.9	40.9	40.9	75	33.6	0	1	315	0.00	29.710 
17:15	40.8	40.8	40.8	75	33.5	0	1	292	0.00	29.710 
17:20	40.6	40.6	40.6	76	33.6	0	1	292	0.00	29.710 
17:25	40.5	40.5	40.5	76	33.5	0	1	292	0.00	29.710 
17:30	40.3	40.3	40.3	77	33.7	0	1	292	0.00	29.718 
17:35	40.1	40.1	40.1	77	33.5	0	1	292	0.00	29.718 
17:40	39.9	39.9	39.9	77	33.3	0	1	292	0.00	29.718 
17:45	39.6	39.6	39.6	78	33.3	0	1	292	0.00	29.710 
17:50	39.5	39.5	39.5	79	33.5	0	2	292	0.00	29.710 
17:55	39.5	39.5	39.5	79	33.5	0	2	292	0.00	29.710 
18:00	39.3	39.3	39.3	79	33.3	0	1	292	0.00	29.711 
18:05	39.3	39.3	39.3	80	33.7	0	1	292	0.00	29.711 
18:10	39.2	39.2	39.2	80	33.6	0	2	292	0.00	29.711 
18:15	39.2	39.2	39.2	80	33.6	0	2	292	0.00	29.710 
18:20	39.2	39.2	39.2	80	33.6	0	2	292	0.00	29.710 
18:25	39.2	39.2	39.2	81	33.9	0	2	292	0.00	29.710 
18:30	39.1	39.1	39.1	81	33.8	0	1	292	0.00	29.712 
18:35	39.2	39.2	39.2	81	33.9	0	1	292	0.00	29.712 
18:40	39.2	39.2	39.2	81	33.9	0	1	292	0.00	29.712 
18:45	39.1	39.1	39.1	81	33.8	0	1	292	0.00	29.714 
18:50	39.2	39.2	39.2	81	33.9	0	2	292	0.00	29.714 
18:55	39.2	39.2	39.2	81	33.9	0	2	292	0.00	29.714 
19:00	39.2	39.2	39.2	81	33.9	0	2	292	0.00	29.711 
19:05	39.2	39.2	39.2	81	33.9	0	2	292	0.00	29.711 
19:10	39.2	39.2	39.2	81	33.9	0	1	292	0.00	29.711 
19:15	39.2	39.2	39.2	81	33.9	0	1	292	0.00	29.707 
19:20	39.2	39.2	39.2	81	33.9	0	2	292	0.00	29.707 
19:25	39.1	39.1	39.1	81	33.8	0	1	292	0.00	29.707 
19:30	39.1	39.1	39.1	82	34.1	0	2	292	0.00	29.705 
19:35	39.1	39.1	39.1	82	34.1	0	2	292	0.00	29.705 
19:40	39.2	39.2	39.2	82	34.2	0	1	292	0.00	29.705 
19:45	39.2	39.2	39.2	82	34.2	0	1	292	0.00	29.701 
19:50	39.2	39.2	39.2	82	34.2	0	3	0	0.00	29.701 
19:55	39.2	39.2	39.2	82	34.2	0	2	0	0.00	29.701 
20:00	39.3	39.3	39.3	81	34.0	0	3	0	0.00	29.697 
20:05	39.3	39.3	39.3	81	34.0	0	2	315	0.00	29.697 
20:10	39.3	39.3	39.3	81	34.0	0	2	315	0.00	29.697 
20:15	39.5	39.5	39.5	81	34.2	0	2	315	0.00	29.695 
20:20	39.5	39.5	39.5	81	34.2	0	1	315	0.00	29.695 
20:25	39.5	39.5	39.5	81	34.2	0	1	315	0.00	29.695 
20:30	39.5	39.5	39.5	81	34.2	0	1	315	0.00	29.694 
20:35	39.3	39.3	39.3	81	34.0	0	1	315	0.00	29.694 
20:40	39.3	39.3	39.3	81	34.0	0	1	315	0.00	29.694 
20:45	39.1	39.1	39.1	81	33.8	0	1	315	0.00	29.690 
20:50	38.9	38.9	38.9	82	33.9	0	1	315	0.00	29.690 
20:55	38.9	38.9	38.9	82	33.9	0	1	315	0.00	29.690 
21:00	38.8	38.8	38.8	82	33.8	0	1	315	0.00	29.687 
21:05	38.8	38.8	38.8	83	34.1	0	2	315	0.00	29.687 
21:10	38.8	38.8	38.8	83	34.1	0	1	315	0.00	29.687 
21:15	38.6	38.6	38.6	83	33.9	0	1	315	0.00	29.683 
21:20	38.5	38.5	38.5	83	33.8	0	1	315	0.00	29.683 
21:25	38.2	38.2	38.2	83	33.5	0	1	315	0.00	29.683 
21:30	37.9	37.9	37.9	83	33.2	0	0	---	0.00	29.680 
21:35	37.8	37.8	37.8	84	33.4	0	0	---	0.00	29.680 
21:40	37.5	37.5	37.5	84	33.1	0	0	---	0.00	29.680 
21:45	37.3	37.3	37.3	84	32.9	0	1	315	0.00	29.675 
21:50	37.3	37.3	37.3	85	33.2	0	1	315	0.00	29.675 
21:55	37.3	37.3	37.3	85	33.2	0	1	315	0.00	29.675 
22:00	37.3	37.3	37.3	85	33.2	0	1	315	0.00	29.671 
22:05	37.3	37.3	37.3	85	33.2	0	2	315	0.00	29.671 
22:10	37.5	37.5	37.5	86	33.7	0	1	315	0.00	29.671 
22:15	37.6	37.6	37.6	86	33.8	0	1	315	0.00	29.667 
22:20	37.8	37.8	37.8	86	34.0	0	2	315	0.00	29.667 
22:25	38.2	38.2	38.2	86	34.4	0	4	112	0.00	29.667 
22:30	38.3	38.3	38.3	85	34.2	0	1	112	0.00	29.664 
22:35	38.5	38.5	38.5	85	34.4	0	1	112	0.00	29.664 
22:40	38.8	38.8	38.8	85	34.7	0	1	112	0.00	29.664 
22:45	38.9	38.9	38.9	85	34.8	0	1	112	0.00	29.658 
22:50	39.1	39.1	39.1	84	34.7	0	2	112	0.00	29.658 
22:55	39.1	39.1	39.1	84	34.7	0	1	225	0.00	29.658 
23:00	39.2	39.2	39.2	84	34.8	0	2	225	0.00	29.656 
23:05	39.3	39.3	39.3	84	34.9	0	1	225	0.00	29.656 
23:10	39.3	39.3	39.3	83	34.6	0	1	225	0.00	29.656 
23:15	39.3	39.3	39.3	83	34.6	0	1	225	0.00	29.653 
23:20	39.2	39.2	39.2	83	34.5	0	1	225	0.00	29.653 
23:25	39.2	39.2	39.2	83	34.5	0	1	225	0.00	29.653 
23:30	39.2	39.2	39.2	83	34.5	0	1	225	0.00	29.652 
23:35	39.2	39.2	39.2	83	34.5	0	1	225	0.00	29.652 
23:40	39.2	39.2	39.2	82	34.2	0	1	225	0.00	29.652 
23:45	39.2	39.2	39.2	82	34.2	0	1	225	0.00	29.652 
23:50	39.2	39.2	39.2	82	34.2	0	1	225	0.00	29.652 
23:55	39.2	39.2	39.2	82	34.2	0	1	225	0.00	29.652 

CoCoRaHS
IN-AL-39
A2 Web Hosting
Creative Commons License
GoDaddy
search engine by freefind advanced

loaded 2018-11-20 14:23:14 • last modified 2010-11-18 10:43:29
Privacy PolicyDisclaimer
• wx.awcolley.com is powered by PmWiki v.2002016 •
• all content (unless otherwise noted) © 2018 A W Colley